Time;durP1;ratioP1;P1;durP2;ratioP2;P2;SDS_P1;SDS_P2;PMS_P1;PMS_P2;Temp;Humidity;BMP_temperature;BMP_pressure;BME280_temperature;BME280_humidity;BME280_pressure;Samples;Min_cycle;Max_cycle;Signal;HPM_P1;HPM_P2
2021/07/04 00:00:28;;;;;;;6.38;5.65;;;;;;;19.60;69.52;96478.91;4993913;28;20051;-76
2021/07/04 00:02:56;;;;;;;6.13;4.60;;;;;;;19.56;69.31;96477.78;4993341;28;20054;-78
2021/07/04 00:05:26;;;;;;;5.90;4.68;;;;;;;19.48;69.50;96486.09;4992613;28;20046;-76
2021/07/04 00:07:54;;;;;;;5.55;4.80;;;;;;;19.41;69.90;96480.97;4993994;28;20046;-77
2021/07/04 00:10:25;;;;;;;5.20;4.70;;;;;;;19.39;70.03;96484.91;4993397;28;20050;-76
2021/07/04 00:12:57;;;;;;;5.82;5.22;;;;;;;19.37;71.14;96484.34;4993629;28;20572;-77
2021/07/04 00:15:27;;;;;;;5.97;4.80;;;;;;;19.40;70.91;96484.69;4993697;28;20043;-78
2021/07/04 00:17:55;;;;;;;5.00;4.60;;;;;;;19.45;71.00;96478.66;4993468;28;20528;-77
2021/07/04 00:20:24;;;;;;;7.43;4.90;;;;;;;19.46;70.33;96483.72;4993510;28;20046;-76
2021/07/04 00:22:54;;;;;;;5.80;5.05;;;;;;;19.43;70.16;96475.47;4992691;28;20050;-77
2021/07/04 00:25:23;;;;;;;6.03;5.35;;;;;;;19.40;70.20;96475.94;4994133;28;20064;-77
2021/07/04 00:27:51;;;;;;;5.70;5.10;;;;;;;19.37;70.35;96473.78;4993308;28;20046;-75
2021/07/04 00:30:20;;;;;;;5.88;5.28;;;;;;;19.32;70.33;96462.06;4993597;28;20073;-77
2021/07/04 00:32:48;;;;;;;5.85;5.22;;;;;;;19.29;70.67;96459.91;4992927;28;20051;-76
2021/07/04 00:35:18;;;;;;;5.35;4.85;;;;;;;19.27;70.93;96464.63;4994170;28;20448;-76
2021/07/04 00:37:47;;;;;;;6.97;5.00;;;;;;;19.26;71.05;96460.41;4994479;28;20057;-76
2021/07/04 00:40:15;;;;;;;7.07;4.82;;;;;;;19.25;70.82;96456.13;4993722;28;20460;-76
2021/07/04 00:42:43;;;;;;;5.28;4.78;;;;;;;19.22;71.04;96455.81;4993384;28;20050;-76
2021/07/04 00:45:14;;;;;;;5.90;4.90;;;;;;;19.18;71.16;96457.34;4993913;28;20054;-76
2021/07/04 00:47:43;;;;;;;5.65;4.85;;;;;;;19.13;71.34;96442.19;4997691;28;20057;-75
2021/07/04 00:50:13;;;;;;;5.45;4.95;;;;;;;19.09;71.53;96441.09;4996593;28;20046;-76
2021/07/04 00:52:42;;;;;;;10.20;5.47;;;;;;;19.05;71.75;96440.75;4995963;28;20047;-77
2021/07/04 00:55:12;;;;;;;5.05;4.55;;;;;;;19.03;71.24;96437.53;4995702;28;20456;-76
2021/07/04 00:57:41;;;;;;;7.97;5.82;;;;;;;19.01;71.20;96436.19;4995815;28;20054;-76
2021/07/04 01:00:11;;;;;;;7.97;5.68;;;;;;;18.97;71.46;96435.84;4995589;28;20467;-76
2021/07/04 01:02:40;;;;;;;5.90;4.85;;;;;;;18.96;71.63;96428.16;4994743;28;20522;-76
2021/07/04 01:05:12;;;;;;;5.68;5.18;;;;;;;18.91;71.65;96427.06;4994957;28;20043;-76
2021/07/04 01:07:41;;;;;;;7.72;4.68;;;;;;;18.89;71.71;96423.84;4996009;28;20093;-77
2021/07/04 01:10:11;;;;;;;5.88;5.28;;;;;;;18.85;71.79;96416.63;4996862;28;20047;-77
2021/07/04 01:12:39;;;;;;;5.50;4.97;;;;;;;18.85;72.26;96412.13;4996362;28;20057;-76
2021/07/04 01:15:07;;;;;;;7.05;5.32;;;;;;;18.85;71.93;96408.72;4994908;28;20428;-77
2021/07/04 01:17:37;;;;;;;5.80;5.28;;;;;;;18.80;72.14;96409.41;4995916;28;20061;-77
2021/07/04 01:20:07;;;;;;;6.20;4.93;;;;;;;18.80;72.94;96412.03;4996012;28;20042;-78
2021/07/04 01:22:39;;;;;;;7.40;5.43;;;;;;;18.85;72.94;96419.28;4996441;28;20448;-76
2021/07/04 01:25:13;;;;;;;5.25;4.75;;;;;;;18.88;73.24;96414.28;4996682;28;20420;-77
2021/07/04 01:27:41;;;;;;;5.40;4.70;;;;;;;18.93;72.62;96417.03;4996811;28;20054;-77
2021/07/04 01:30:10;;;;;;;5.88;5.22;;;;;;;18.92;72.12;96419.91;4997414;28;20050;-76
2021/07/04 01:32:38;;;;;;;6.65;5.20;;;;;;;18.92;72.39;96430.50;4996133;28;20054;-76
2021/07/04 01:35:07;;;;;;;5.38;4.88;;;;;;;18.93;72.58;96432.91;4996405;28;20118;-78
2021/07/04 01:37:37;;;;;;;7.05;5.40;;;;;;;18.96;71.81;96428.97;4996319;28;20058;-76
2021/07/04 01:40:06;;;;;;;7.70;6.28;;;;;;;18.96;71.69;96436.09;4996426;28;20057;-76
2021/07/04 01:42:35;;;;;;;5.30;4.80;;;;;;;18.94;72.69;96428.41;4994695;28;20056;-75
2021/07/04 01:45:03;;;;;;;5.70;5.20;;;;;;;18.97;72.61;96429.78;4994006;28;20104;-78
2021/07/04 01:47:31;;;;;;;7.85;4.80;;;;;;;19.02;72.53;96435.97;4994425;28;20050;-75
2021/07/04 01:49:58;;;;;;;8.93;7.05;;;;;;;19.05;72.22;96437.31;4994412;28;20061;-75
2021/07/04 01:52:26;;;;;;;6.78;5.80;;;;;;;19.04;71.56;96433.03;4994704;28;20054;-77
2021/07/04 01:54:54;;;;;;;6.70;5.10;;;;;;;19.00;71.76;96427.47;4994874;28;20054;-75
2021/07/04 01:57:21;;;;;;;7.85;5.78;;;;;;;18.98;71.43;96423.44;4994229;28;20504;-74
2021/07/04 01:59:53;;;;;;;5.93;5.32;;;;;;;18.95;71.59;96414.13;4994014;28;20061;-75
2021/07/04 02:02:21;;;;;;;7.53;5.75;;;;;;;18.91;71.72;96415.66;4994398;28;20050;-76
2021/07/04 02:04:48;;;;;;;6.78;5.20;;;;;;;18.85;71.86;96416.63;4993351;28;20054;-75
2021/07/04 02:07:17;;;;;;;6.80;5.35;;;;;;;18.77;72.06;96415.13;4995209;28;20402;-77
2021/07/04 02:09:45;;;;;;;7.30;5.57;;;;;;;18.71;72.19;96413.44;4994498;28;20097;-75
2021/07/04 02:12:15;;;;;;;6.65;4.93;;;;;;;18.67;72.25;96422.88;4994114;28;20058;-76
2021/07/04 02:14:43;;;;;;;5.10;4.60;;;;;;;18.64;72.12;96428.66;4993442;28;20054;-75
2021/07/04 02:17:12;;;;;;;5.20;4.70;;;;;;;18.63;72.17;96430.50;4994712;28;20058;-75
2021/07/04 02:19:41;;;;;;;7.28;5.38;;;;;;;18.63;72.45;96427.03;4995804;28;20133;-76
2021/07/04 02:22:11;;;;;;;5.60;5.05;;;;;;;18.65;72.49;96427.59;4995830;28;20050;-77
2021/07/04 02:24:39;;;;;;;5.38;4.60;;;;;;;18.66;72.41;96421.28;4994536;28;20097;-77
2021/07/04 02:27:07;;;;;;;5.10;4.60;;;;;;;18.68;72.46;96421.84;4995840;28;20069;-77
2021/07/04 02:29:35;;;;;;;5.30;4.80;;;;;;;18.70;72.68;96417.94;4995711;28;20058;-76
2021/07/04 02:32:03;;;;;;;7.18;4.80;;;;;;;18.70;71.91;96420.56;4995095;28;20057;-76
2021/07/04 02:34:32;;;;;;;5.53;4.85;;;;;;;18.68;72.05;96425.28;4994571;28;20098;-76
2021/07/04 02:36:59;;;;;;;7.80;5.22;;;;;;;18.69;72.79;96426.91;4994859;28;20054;-77
2021/07/04 02:39:27;;;;;;;5.13;4.65;;;;;;;18.72;72.88;96431.72;4994725;28;20061;-77
2021/07/04 02:41:55;;;;;;;6.07;5.47;;;;;;;18.70;72.37;96425.84;4995360;28;20109;-77
2021/07/04 02:44:22;;;;;;;5.80;5.20;;;;;;;18.67;72.63;96428.16;4994796;28;20054;-76
2021/07/04 02:46:50;;;;;;;6.05;4.97;;;;;;;18.64;72.57;96426.00;4994728;28;20065;-77
2021/07/04 02:49:17;;;;;;;5.63;5.03;;;;;;;18.62;72.81;96436.00;4994867;28;20424;-78
2021/07/04 02:51:46;;;;;;;6.57;5.30;;;;;;;18.59;73.11;96423.28;4995002;28;20047;-77
2021/07/04 02:54:14;;;;;;;6.95;5.68;;;;;;;18.61;72.96;96423.84;4994243;28;20057;-77
2021/07/04 02:56:50;;;;;;;5.38;4.88;;;;;;;18.65;73.29;96430.22;4995040;28;20144;-77
2021/07/04 02:59:18;;;;;;;6.00;5.40;;;;;;;18.68;72.98;96424.50;4995152;28;20057;-76
2021/07/04 03:01:45;;;;;;;5.40;4.90;;;;;;;18.72;72.63;96430.91;4994967;28;20050;-77
2021/07/04 03:04:13;;;;;;;6.50;5.45;;;;;;;18.72;72.18;96425.63;4994491;28;20047;-77
2021/07/04 03:06:40;;;;;;;8.20;5.75;;;;;;;18.69;72.15;96426.09;4994848;28;20057;-76
2021/07/04 03:09:09;;;;;;;5.70;4.85;;;;;;;18.67;72.77;96425.50;4994680;28;20054;-77
2021/07/04 03:11:37;;;;;;;7.53;5.95;;;;;;;18.65;72.43;96427.59;4994771;28;20073;-76
2021/07/04 03:14:04;;;;;;;5.95;5.35;;;;;;;18.63;72.35;96427.03;4994077;28;20416;-76
2021/07/04 03:16:31;;;;;;;6.25;5.65;;;;;;;18.59;72.30;96420.63;4994846;28;20050;-76
2021/07/04 03:18:59;;;;;;;6.80;5.72;;;;;;;18.57;72.55;96420.88;4995356;28;20054;-76
2021/07/04 03:21:27;;;;;;;8.93;6.10;;;;;;;18.55;72.44;96427.44;4994670;28;20065;-76
2021/07/04 03:23:54;;;;;;;5.72;5.18;;;;;;;18.53;73.11;96420.53;4993534;28;20057;-77
2021/07/04 03:26:23;;;;;;;6.68;6.03;;;;;;;18.52;72.50;96421.56;4993239;28;20047;-76
2021/07/04 03:28:50;;;;;;;7.38;5.85;;;;;;;18.49;72.71;96419.41;4993635;28;20065;-77
2021/07/04 03:31:18;;;;;;;6.70;5.45;;;;;;;18.48;72.80;96412.53;4993079;28;20046;-77
2021/07/04 03:33:46;;;;;;;6.15;5.55;;;;;;;18.47;72.95;96412.75;4992698;28;20058;-76
2021/07/04 03:36:13;;;;;;;8.80;5.85;;;;;;;18.44;72.89;96418.50;4993309;28;20057;-77
2021/07/04 03:38:42;;;;;;;5.57;5.05;;;;;;;18.44;72.91;96413.22;4993368;28;20058;-77
2021/07/04 03:41:09;;;;;;;6.65;5.43;;;;;;;18.43;72.81;96409.78;4993425;28;20092;-77
2021/07/04 03:43:38;;;;;;;6.60;5.85;;;;;;;18.37;72.90;96402.81;4992289;28;20058;-76
2021/07/04 03:46:06;;;;;;;6.15;5.30;;;;;;;18.36;73.07;96401.19;4992837;28;20456;-77
2021/07/04 03:48:33;;;;;;;6.40;5.50;;;;;;;18.35;72.98;96404.09;4993178;28;20061;-75
2021/07/04 03:51:02;;;;;;;6.15;5.10;;;;;;;18.33;73.05;96407.75;4993169;28;20046;-76
2021/07/04 03:53:29;;;;;;;6.80;5.63;;;;;;;18.33;73.15;96404.31;4992612;28;20054;-76
2021/07/04 03:55:57;;;;;;;8.07;6.05;;;;;;;18.31;73.28;96407.19;4993227;28;20058;-76
2021/07/04 03:58:24;;;;;;;6.28;5.68;;;;;;;18.29;73.17;96400.53;4993079;28;20061;-76
2021/07/04 04:00:53;;;;;;;7.05;6.35;;;;;;;18.26;73.41;96406.31;4993088;28;20062;-77
2021/07/04 04:03:20;;;;;;;7.07;5.80;;;;;;;18.24;73.49;96411.00;4993009;28;20057;-76
2021/07/04 04:05:48;;;;;;;5.88;5.30;;;;;;;18.23;73.66;96404.91;4992904;28;20050;-77
2021/07/04 04:08:15;;;;;;;6.43;5.57;;;;;;;18.27;73.61;96410.53;4992539;28;20500;-76
2021/07/04 04:10:43;;;;;;;8.40;6.32;;;;;;;18.26;73.58;96408.94;4992770;28;20051;-77
2021/07/04 04:13:11;;;;;;;6.68;6.03;;;;;;;18.25;73.46;96410.75;4991436;28;20492;-76
2021/07/04 04:15:38;;;;;;;6.13;5.53;;;;;;;18.23;73.74;96414.66;4992482;28;20055;-76
2021/07/04 04:18:08;;;;;;;6.60;5.90;;;;;;;18.22;73.76;96415.72;4992233;28;20539;-76
2021/07/04 04:20:35;;;;;;;7.43;6.32;;;;;;;18.23;73.78;96412.03;4992537;28;20050;-76
2021/07/04 04:23:03;;;;;;;8.15;6.80;;;;;;;18.22;73.68;96415.72;4995632;28;20058;-77
2021/07/04 04:25:30;;;;;;;7.78;6.97;;;;;;;18.20;73.80;96410.66;4996074;28;20722;-76
2021/07/04 04:27:58;;;;;;;7.82;7.03;;;;;;;18.18;73.99;96411.94;4995804;28;20054;-76
2021/07/04 04:30:25;;;;;;;7.55;6.85;;;;;;;18.17;74.10;96412.97;4995817;28;20531;-77
2021/07/04 04:32:53;;;;;;;7.93;6.85;;;;;;;18.16;74.21;96406.09;4994767;28;20527;-75
2021/07/04 04:35:21;;;;;;;9.57;7.20;;;;;;;18.11;74.39;96407.59;4995921;28;20432;-76
2021/07/04 04:37:50;;;;;;;7.18;6.47;;;;;;;18.10;74.33;96408.66;4995944;28;20054;-75
2021/07/04 04:40:17;;;;;;;7.78;6.95;;;;;;;18.13;74.26;96402.09;4996119;28;20042;-77
2021/07/04 04:42:45;;;;;;;9.65;7.25;;;;;;;18.14;74.39;96403.69;4995710;28;20085;-75
2021/07/04 04:45:12;;;;;;;7.25;6.55;;;;;;;18.15;74.30;96399.19;4995929;28;20069;-77
2021/07/04 04:47:40;;;;;;;8.18;7.30;;;;;;;18.17;74.40;96405.88;4995823;28;20050;-77
2021/07/04 04:50:09;;;;;;;9.32;6.55;;;;;;;18.22;74.50;96410.44;4995666;28;20050;-77
2021/07/04 04:52:38;;;;;;;12.02;6.88;;;;;;;18.25;74.15;96404.69;4995436;28;20050;-77
2021/07/04 04:55:08;;;;;;;7.05;6.32;;;;;;;18.27;74.36;96402.59;4995270;28;20108;-76
2021/07/04 04:57:36;;;;;;;8.85;6.43;;;;;;;18.32;74.13;96395.59;4995608;28;20535;-76
2021/07/04 05:00:07;;;;;;;8.45;6.10;;;;;;;18.32;74.10;96398.25;4995964;28;20054;-77
2021/07/04 05:02:42;;;;;;;6.35;5.70;;;;;;;18.36;73.99;96395.13;4995496;28;20054;-77
2021/07/04 05:05:11;;;;;;;8.48;6.13;;;;;;;18.41;74.23;96396.03;4995412;28;20050;-76
2021/07/04 05:07:40;;;;;;;6.90;6.20;;;;;;;18.44;73.93;96392.91;4995609;28;20050;-77
2021/07/04 05:10:09;;;;;;;6.32;5.72;;;;;;;18.49;73.75;96394.81;4995198;28;20548;-77
2021/07/04 05:12:36;;;;;;;6.65;5.40;;;;;;;18.53;73.57;96390.69;4995161;28;20413;-77
2021/07/04 05:15:06;;;;;;;7.18;6.13;;;;;;;18.58;73.33;96393.41;4995191;28;20133;-79
2021/07/04 05:17:33;;;;;;;6.00;5.40;;;;;;;18.62;73.09;96388.44;4995429;28;20057;-77
2021/07/04 05:20:01;;;;;;;7.80;6.00;;;;;;;18.64;72.97;96383.72;4994375;28;20051;-77
2021/07/04 05:22:29;;;;;;;5.90;5.07;;;;;;;18.67;72.83;96391.16;4995529;28;20038;-78
2021/07/04 05:24:58;;;;;;;5.65;5.15;;;;;;;18.68;72.69;96377.72;4995060;28;20070;-79
2021/07/04 05:27:25;;;;;;;6.13;5.57;;;;;;;18.67;72.51;96380.59;4995185;28;20043;-79
2021/07/04 05:29:53;;;;;;;5.55;5.05;;;;;;;18.64;72.52;96375.81;4994971;28;20058;-79
2021/07/04 05:32:21;;;;;;;5.53;4.97;;;;;;;18.63;72.47;96369.72;4994584;28;20050;-77
2021/07/04 05:34:48;;;;;;;5.32;4.82;;;;;;;18.64;72.56;96365.25;4994473;28;20061;-77
2021/07/04 05:37:17;;;;;;;5.40;4.90;;;;;;;18.66;72.24;96368.44;4994674;28;20046;-78
2021/07/04 05:39:45;;;;;;;4.60;4.07;;;;;;;18.68;72.30;96361.09;4994784;28;20531;-77
2021/07/04 05:42:14;;;;;;;4.63;3.80;;;;;;;18.72;72.12;96364.84;4994730;28;20054;-78
2021/07/04 05:44:42;;;;;;;5.75;3.95;;;;;;;18.75;71.83;96361.72;4993827;28;20050;-77
2021/07/04 05:47:10;;;;;;;4.20;3.65;;;;;;;18.82;71.47;96359.75;4994775;28;20397;-80
2021/07/04 05:49:37;;;;;;;4.32;3.55;;;;;;;18.86;70.73;96357.44;4994311;28;20054;-77
2021/07/04 05:52:06;;;;;;;3.55;3.25;;;;;;;18.87;70.29;96357.22;4993095;28;20512;-79
2021/07/04 05:54:37;;;;;;;3.67;3.08;;;;;;;18.88;70.29;96353.50;4992788;28;20674;-79
2021/07/04 05:57:06;;;;;;;2.42;2.22;;;;;;;18.89;69.43;96356.94;4994095;28;20050;-78
2021/07/04 05:59:35;;;;;;;3.63;2.95;;;;;;;18.89;69.62;96356.94;4994125;28;20054;-78
2021/07/04 06:02:03;;;;;;;2.92;2.70;;;;;;;18.92;69.96;96349.34;4994606;28;20051;-79
2021/07/04 06:04:31;;;;;;;4.30;2.65;;;;;;;18.98;69.52;96344.13;4996408;28;20057;-81
2021/07/04 06:06:59;;;;;;;2.40;2.20;;;;;;;19.02;69.23;96339.97;4995522;28;20058;-79
2021/07/04 06:09:26;;;;;;;2.25;2.05;;;;;;;19.07;69.51;96348.00;4996828;28;20054;-81
2021/07/04 06:11:54;;;;;;;2.42;2.20;;;;;;;19.10;68.33;96347.50;4997648;28;20501;-80
2021/07/04 06:14:21;;;;;;;2.72;2.22;;;;;;;19.12;68.07;96350.69;4995446;28;20073;-80
2021/07/04 06:16:50;;;;;;;2.35;2.15;;;;;;;19.13;68.04;96341.72;4994757;28;20054;-78
2021/07/04 06:19:19;;;;;;;2.40;2.05;;;;;;;19.16;68.30;96343.88;4993901;28;20109;-79
2021/07/04 06:21:46;;;;;;;2.50;2.30;;;;;;;19.18;68.53;96339.16;4993707;28;20420;-78
2021/07/04 06:24:14;;;;;;;3.35;2.55;;;;;;;19.17;68.47;96332.25;4992897;28;20066;-79
2021/07/04 06:26:42;;;;;;;2.70;2.50;;;;;;;19.19;68.59;96340.75;4993706;28;20057;-80
2021/07/04 06:29:09;;;;;;;2.90;2.70;;;;;;;19.22;68.35;96342.09;4993542;28;20397;-79
2021/07/04 06:31:37;;;;;;;3.85;2.55;;;;;;;19.25;68.17;96334.50;4993774;28;20057;-79
2021/07/04 06:34:06;;;;;;;2.47;2.28;;;;;;;19.27;68.24;96340.34;4992872;28;20133;-79
2021/07/04 06:36:33;;;;;;;3.20;2.30;;;;;;;19.29;67.92;96330.31;4993582;28;20061;-78
2021/07/04 06:39:01;;;;;;;2.50;2.30;;;;;;;19.30;67.95;96331.91;4993580;28;20050;-78
2021/07/04 06:41:28;;;;;;;2.22;2.03;;;;;;;19.32;68.16;96329.81;4993504;28;20046;-79
2021/07/04 06:43:56;;;;;;;3.15;2.40;;;;;;;19.37;68.01;96330.94;4991915;28;20050;-78
2021/07/04 06:46:23;;;;;;;3.08;2.00;;;;;;;19.40;67.78;96333.13;4993676;28;20081;-78
2021/07/04 06:48:51;;;;;;;2.53;2.33;;;;;;;19.44;67.66;96331.56;4993413;28;20050;-78
2021/07/04 06:51:20;;;;;;;4.22;2.38;;;;;;;19.48;67.91;96332.69;4992918;28;20061;-79
2021/07/04 06:53:48;;;;;;;2.88;2.22;;;;;;;19.50;68.15;96330.59;4992432;28;20046;-78
2021/07/04 06:56:15;;;;;;;2.30;2.10;;;;;;;19.54;67.98;96321.13;4992966;28;20046;-80
2021/07/04 06:58:43;;;;;;;2.65;2.13;;;;;;;19.59;68.16;96329.13;4993244;28;20046;-80
2021/07/04 07:01:13;;;;;;;2.35;2.15;;;;;;;19.62;67.90;96333.13;4993746;28;20146;-80
2021/07/04 07:03:40;;;;;;;3.25;2.60;;;;;;;19.62;67.76;96328.63;4992572;28;20042;-79
2021/07/04 07:06:08;;;;;;;2.33;2.13;;;;;;;19.62;67.96;96327.84;4992785;28;20057;-80
2021/07/04 07:08:37;;;;;;;2.42;2.22;;;;;;;19.62;68.23;96318.06;4993771;28;20054;-78
2021/07/04 07:11:04;;;;;;;3.42;2.65;;;;;;;19.65;68.47;96322.84;4995423;28;20057;-77
2021/07/04 07:13:32;;;;;;;2.95;2.40;;;;;;;19.66;67.12;96313.09;4997413;28;20432;-77
2021/07/04 07:16:00;;;;;;;2.53;2.33;;;;;;;19.69;67.34;96309.94;4997048;28;20080;-79
2021/07/04 07:18:27;;;;;;;3.92;2.72;;;;;;;19.72;67.21;96307.63;4995139;28;20046;-76
2021/07/04 07:20:55;;;;;;;3.10;2.60;;;;;;;19.79;67.45;96312.72;4995340;28;20061;-77
2021/07/04 07:23:22;;;;;;;3.67;2.80;;;;;;;19.87;67.79;96314.13;4993794;28;20046;-77
2021/07/04 07:25:53;;;;;;;3.08;2.58;;;;;;;19.94;67.44;96314.72;4994678;28;20065;-78
2021/07/04 07:28:21;;;;;;;3.95;3.30;;;;;;;20.02;67.05;96314.28;4995861;28;20046;-78
2021/07/04 07:30:49;;;;;;;3.42;2.97;;;;;;;20.11;67.40;96307.50;4995279;28;20057;-78
2021/07/04 07:33:17;;;;;;;3.30;3.00;;;;;;;20.19;66.80;96300.19;4995402;28;20086;-78
2021/07/04 07:35:44;;;;;;;4.22;3.80;;;;;;;20.23;65.72;96301.28;4995548;28;20050;-79
2021/07/04 07:38:12;;;;;;;4.20;3.83;;;;;;;20.28;65.27;96311.91;4995427;28;20061;-77
2021/07/04 07:40:39;;;;;;;4.70;3.40;;;;;;;20.33;64.79;96314.59;4995376;28;20050;-77
2021/07/04 07:43:08;;;;;;;4.40;3.22;;;;;;;20.37;64.63;96318.34;4995244;28;20050;-77
2021/07/04 07:45:36;;;;;;;4.00;3.53;;;;;;;20.39;64.57;96316.25;4994399;28;20050;-76
2021/07/04 07:48:04;;;;;;;5.28;3.72;;;;;;;20.41;64.26;96316.00;4996303;28;20503;-77
2021/07/04 07:50:34;;;;;;;5.20;4.00;;;;;;;20.44;64.02;96315.50;4994631;28;20121;-78
2021/07/04 07:53:01;;;;;;;6.65;4.30;;;;;;;20.45;64.43;96311.81;4994391;28;20074;-80
2021/07/04 07:55:29;;;;;;;6.70;4.55;;;;;;;20.50;64.83;96309.19;4996648;28;20062;-79
2021/07/04 07:57:56;;;;;;;4.53;4.13;;;;;;;20.52;64.54;96307.91;4997808;28;20058;-79
2021/07/04 08:00:25;;;;;;;5.68;4.47;;;;;;;20.57;64.61;96305.34;4997558;28;20112;-78
2021/07/04 08:02:53;;;;;;;3.72;3.42;;;;;;;20.66;64.23;96302.19;4996378;28;20127;-80
2021/07/04 08:05:20;;;;;;;4.82;3.70;;;;;;;20.72;63.98;96298.53;4999304;28;20050;-78
2021/07/04 08:07:47;;;;;;;5.50;4.10;;;;;;;20.76;63.84;96295.13;4997424;28;20058;-81
2021/07/04 08:10:15;;;;;;;4.55;4.15;;;;;;;20.83;63.51;96294.13;4991308;28;20050;-76
2021/07/04 08:12:44;;;;;;;4.25;3.85;;;;;;;20.88;63.54;96292.31;4984958;28;20043;-77
2021/07/04 08:15:13;;;;;;;5.07;4.50;;;;;;;20.93;63.07;96287.03;4986491;28;20412;-78
2021/07/04 08:17:42;;;;;;;20.50;13.93;;;;;;;21.01;62.81;96292.91;4996325;28;20054;-80
2021/07/04 08:20:12;;;;;;;6.03;4.35;;;;;;;21.07;62.59;96286.59;4996667;28;20050;-78
2021/07/04 08:22:40;;;;;;;4.30;3.90;;;;;;;21.12;62.29;96276.00;4995971;28;20050;-77
2021/07/04 08:25:09;;;;;;;6.35;4.20;;;;;;;21.18;61.72;96285.59;4988893;28;20046;-77
2021/07/04 08:27:37;;;;;;;3.55;3.25;;;;;;;21.23;60.85;96267.06;4976437;28;20054;-78
2021/07/04 08:30:08;;;;;;;5.28;3.97;;;;;;;21.31;61.21;96263.91;4977475;28;20115;-78
2021/07/04 08:32:35;;;;;;;3.60;3.33;;;;;;;21.39;61.01;96260.75;4980353;28;20062;-77
2021/07/04 08:35:06;;;;;;;4.00;3.70;;;;;;;21.45;60.53;96263.47;4997645;28;20050;-76
2021/07/04 08:37:34;;;;;;;4.57;4.18;;;;;;;21.52;61.22;96264.81;4993777;28;20057;-77
2021/07/04 08:40:02;;;;;;;4.00;3.58;;;;;;;21.60;59.72;96258.22;4996272;28;20058;-77
2021/07/04 08:42:29;;;;;;;4.28;3.95;;;;;;;21.68;59.73;96246.31;4993234;28;20046;-77
2021/07/04 08:44:59;;;;;;;3.95;3.50;;;;;;;21.76;59.62;96243.94;4980038;28;20051;-76
2021/07/04 08:47:27;;;;;;;32.60;23.98;;;;;;;21.86;59.88;96242.38;4991543;28;20046;-76
2021/07/04 08:49:56;;;;;;;4.68;4.28;;;;;;;21.95;59.36;96241.59;4984357;28;20051;-77
2021/07/04 08:52:25;;;;;;;4.40;3.72;;;;;;;22.06;59.76;96237.06;4995443;28;20046;-76
2021/07/04 08:54:53;;;;;;;5.43;4.63;;;;;;;22.15;59.62;96235.50;4995145;28;20452;-77
2021/07/04 08:57:20;;;;;;;3.95;3.65;;;;;;;22.23;58.49;96236.88;4995985;28;20116;-77
2021/07/04 08:59:49;;;;;;;3.90;3.60;;;;;;;22.27;58.62;96239.81;4995760;28;20050;-76
2021/07/04 09:02:30;;;;;;;3.92;3.53;;;;;;;22.35;58.68;96241.94;4996071;28;20046;-77
2021/07/04 09:05:01;;;;;;;3.72;3.42;;;;;;;22.44;58.07;96250.97;4996880;28;20054;-78
2021/07/04 09:07:30;;;;;;;4.45;2.92;;;;;;;22.45;56.77;96249.88;4996453;28;20054;-77
2021/07/04 09:10:00;;;;;;;4.28;3.22;;;;;;;22.48;56.26;96246.72;4998258;28;20046;-78
2021/07/04 09:12:38;;;;;;;4.82;3.05;;;;;;;22.55;56.78;96254.41;4998354;28;20050;-76
2021/07/04 09:15:09;;;;;;;3.28;2.70;;;;;;;22.58;56.09;96259.19;4999526;28;20058;-76
2021/07/04 09:17:39;;;;;;;5.80;5.13;;;;;;;22.61;56.36;96254.16;4995605;28;20049;-76
2021/07/04 09:20:12;;;;;;;3.70;3.40;;;;;;;22.66;56.04;96244.59;4995166;28;20050;-76
2021/07/04 09:22:42;;;;;;;4.60;3.30;;;;;;;22.70;56.45;96253.63;4995180;28;20108;-76
2021/07/04 09:25:13;;;;;;;3.28;2.97;;;;;;;22.76;56.26;96255.19;4994633;28;20500;-77
2021/07/04 09:27:43;;;;;;;2.88;2.67;;;;;;;22.79;55.63;96255.47;4994758;28;20050;-76
2021/07/04 09:30:15;;;;;;;7.57;2.80;;;;;;;22.81;54.58;96260.53;4995379;28;20136;-76
2021/07/04 09:32:48;;;;;;;4.18;3.08;;;;;;;22.80;54.07;96250.94;5006117;23;20077;-74
2021/07/04 09:35:19;;;;;;;3.53;2.50;;;;;;;22.81;53.75;96247.22;4995406;28;20042;-74
2021/07/04 09:37:51;;;;;;;2.97;2.75;;;;;;;22.82;54.21;96249.59;4995543;28;20062;-74
2021/07/04 09:40:22;;;;;;;3.10;2.80;;;;;;;22.84;53.63;96241.34;4995531;28;20215;-73
2021/07/04 09:42:55;;;;;;;10.88;8.82;;;;;;;22.86;53.52;96251.72;4994397;28;20061;-74
2021/07/04 09:45:24;;;;;;;3.60;3.30;;;;;;;22.88;54.27;96252.25;4995451;28;20050;-73
2021/07/04 09:47:53;;;;;;;6.15;4.90;;;;;;;22.92;54.35;96243.47;4994990;28;20046;-74
2021/07/04 09:50:21;;;;;;;4.53;3.35;;;;;;;22.98;55.24;96244.25;4995807;28;20058;-73
2021/07/04 09:53:00;;;;;;;4.97;3.55;;;;;;;23.00;55.42;96245.63;4994643;28;20057;-74
2021/07/04 09:55:28;;;;;;;4.78;4.20;;;;;;;23.00;55.79;96245.63;4994712;28;20479;-74
2021/07/04 09:57:58;;;;;;;6.20;3.97;;;;;;;23.02;55.85;96248.00;4995061;28;20042;-74
2021/07/04 10:00:28;;;;;;;5.03;4.40;;;;;;;23.03;54.63;96245.06;4994934;28;20058;-74
2021/07/04 10:03:08;;;;;;;4.75;3.65;;;;;;;22.98;54.48;96242.41;4994077;28;20524;-75
2021/07/04 10:05:36;;;;;;;4.00;3.70;;;;;;;22.99;54.98;96232.56;4994468;28;20046;-74
2021/07/04 10:08:25;;;;;;;3.35;3.00;;;;;;;23.03;53.33;96230.97;4995216;28;20057;-74
2021/07/04 10:10:56;;;;;;;3.70;3.40;;;;;;;23.07;52.92;96224.06;4994334;28;20077;-73
2021/07/04 10:13:24;;;;;;;3.25;2.95;;;;;;;23.14;53.27;96213.13;4993680;28;20046;-74
2021/07/04 10:15:52;;;;;;;4.22;3.28;;;;;;;23.20;53.58;96204.06;4994481;28;20069;-73
2021/07/04 10:18:21;;;;;;;3.30;3.00;;;;;;;23.30;53.73;96201.34;4994345;28;20062;-74
2021/07/04 10:20:50;;;;;;;5.47;4.13;;;;;;;23.36;53.62;96194.16;4994069;28;20500;-74
2021/07/04 10:23:19;;;;;;;5.13;4.25;;;;;;;23.41;53.42;96186.13;4993350;28;20541;-74
2021/07/04 10:25:49;;;;;;;4.30;3.70;;;;;;;23.44;53.95;96180.28;4994475;28;20051;-73
2021/07/04 10:28:19;;;;;;;3.80;3.47;;;;;;;23.53;53.69;96167.19;4993878;28;20050;-74
2021/07/04 10:30:49;;;;;;;4.15;3.60;;;;;;;23.59;53.33;96174.06;4994071;28;20050;-73
2021/07/04 10:33:20;;;;;;;4.57;3.67;;;;;;;23.67;53.06;96162.03;4993078;28;20105;-77
2021/07/04 10:36:02;;;;;;;7.10;3.90;;;;;;;23.74;52.19;96160.63;4995244;28;20523;-76
2021/07/04 10:38:51;;;;;;;3.75;3.45;;;;;;;23.84;53.50;96141.97;5006051;28;20054;-76
2021/07/04 10:41:23;;;;;;;3.92;3.47;;;;;;;23.95;52.87;96156.00;5001258;28;20056;-77
2021/07/04 10:44:12;;;;;;;4.30;3.90;;;;;;;24.02;52.04;96148.50;4994884;28;20050;-77
2021/07/04 10:47:03;;;;;;;6.50;5.55;;;;;;;24.10;51.82;96152.44;4992598;28;20061;-76
2021/07/04 10:49:36;;;;;;;5.38;4.88;;;;;;;24.19;51.63;96156.09;5004314;28;20409;-76
2021/07/04 10:52:05;;;;;;;;;;;;;;;24.29;51.87;96151.72;4994540;28;20054;-76
2021/07/04 10:54:47;;;;;;;4.78;3.60;;;;;;;24.38;51.31;96150.03;4992916;28;19926;-78
2021/07/04 10:57:20;;;;;;;3.65;3.35;;;;;;;24.40;50.59;96151.38;4993675;28;20114;-77
2021/07/04 11:00:12;;;;;;;6.78;6.07;;;;;;;24.42;51.40;96145.75;4993677;28;20054;-77
2021/07/04 11:02:41;;;;;;;11.55;8.63;;;;;;;24.50;51.48;96152.38;4993808;28;20053;-77
2021/07/04 11:05:10;;;;;;;6.97;5.20;;;;;;;24.55;51.35;96153.09;4992964;28;20055;-78
2021/07/04 11:08:17;;;;;;;4.30;3.90;;;;;;;24.64;50.76;96143.44;4993926;28;20648;-78
2021/07/04 11:10:59;;;;;;;4.28;3.88;;;;;;;24.70;50.75;96144.16;4993668;28;20054;-78
2021/07/04 11:13:34;;;;;;;3.83;3.50;;;;;;;24.72;50.81;96141.22;4992859;28;20504;-78
2021/07/04 11:16:23;;;;;;;4.20;3.90;;;;;;;24.66;50.26;96138.63;4993599;28;20050;-78
2021/07/04 11:19:10;;;;;;;3.60;3.30;;;;;;;24.66;49.99;96137.81;4985735;28;20054;-78
2021/07/04 11:21:54;;;;;;;8.35;7.53;;;;;;;24.68;49.91;96139.09;4975895;28;20047;-78
2021/07/04 11:24:24;;;;;;;3.80;3.50;;;;;;;24.69;49.73;96129.25;4975005;28;20058;-78
2021/07/04 11:27:25;;;;;;;3.65;3.35;;;;;;;24.67;50.13;96132.19;4975605;28;20117;-77
2021/07/04 11:30:28;;;;;;;4.35;3.95;;;;;;;24.63;49.13;96120.50;4975474;28;20137;-78
2021/07/04 11:33:29;;;;;;;3.92;3.60;;;;;;;24.62;49.89;96116.25;4975098;28;20046;-78
2021/07/04 11:36:00;;;;;;;4.03;3.58;;;;;;;24.59;49.28;96110.69;4965349;28;20066;-79
2021/07/04 11:38:30;;;;;;;3.90;3.25;;;;;;;24.59;49.56;96097.34;4974717;28;20050;-78
2021/07/04 11:40:58;;;;;;;3.60;3.30;;;;;;;24.60;49.78;96091.75;4973639;28;20061;-78
2021/07/04 11:43:27;;;;;;;3.33;3.03;;;;;;;24.60;48.93;96094.41;4972534;28;20050;-79
2021/07/04 11:45:58;;;;;;;3.28;2.95;;;;;;;24.56;48.96;96088.06;4973039;28;20070;-79